sensor_id;sensor_type;location;lat;lon;timestamp;pressure;altitude;pressure_sealevel;temperature;humidity
22653;BME280;11493;43.344;26.226;2023-03-03T00:01:29;99588.69;;;6.42;94.52
22653;BME280;11493;43.344;26.226;2023-03-03T00:03:58;99605.06;;;6.47;94.36
22653;BME280;11493;43.344;26.226;2023-03-03T00:06:25;99602.91;;;6.44;94.51
22653;BME280;11493;43.344;26.226;2023-03-03T00:08:52;99599.38;;;6.39;94.88
22653;BME280;11493;43.344;26.226;2023-03-03T00:11:19;99594.69;;;6.44;94.68
22653;BME280;11493;43.344;26.226;2023-03-03T00:13:49;99584.91;;;6.33;94.58
22653;BME280;11493;43.344;26.226;2023-03-03T00:16:20;99598.00;;;6.41;94.54
22653;BME280;11493;43.344;26.226;2023-03-03T00:18:49;99590.91;;;6.35;95.13
22653;BME280;11493;43.344;26.226;2023-03-03T00:21:51;99584.03;;;6.43;94.75
22653;BME280;11493;43.344;26.226;2023-03-03T00:24:36;99589.75;;;6.51;94.04
22653;BME280;11493;43.344;26.226;2023-03-03T00:27:36;99583.22;;;6.42;94.19
22653;BME280;11493;43.344;26.226;2023-03-03T00:30:02;99585.69;;;6.44;94.58
22653;BME280;11493;43.344;26.226;2023-03-03T00:32:44;99579.97;;;6.35;95.22
22653;BME280;11493;43.344;26.226;2023-03-03T00:38:01;99570.50;;;6.17;95.76
22653;BME280;11493;43.344;26.226;2023-03-03T00:40:34;99572.06;;;6.34;95.98
22653;BME280;11493;43.344;26.226;2023-03-03T00:43:33;99566.91;;;6.22;96.82
22653;BME280;11493;43.344;26.226;2023-03-03T00:45:58;99553.22;;;6.27;96.64
22653;BME280;11493;43.344;26.226;2023-03-03T00:48:30;99563.31;;;6.32;96.42
22653;BME280;11493;43.344;26.226;2023-03-03T00:50:59;99570.44;;;6.28;97.02
22653;BME280;11493;43.344;26.226;2023-03-03T00:53:28;99556.25;;;6.25;97.13
22653;BME280;11493;43.344;26.226;2023-03-03T00:55:56;99557.06;;;6.26;97.04
22653;BME280;11493;43.344;26.226;2023-03-03T00:58:24;99557.81;;;6.42;96.54
22653;BME280;11493;43.344;26.226;2023-03-03T01:00:53;99561.91;;;6.39;96.85
22653;BME280;11493;43.344;26.226;2023-03-03T01:03:25;99549.34;;;6.38;96.89
22653;BME280;11493;43.344;26.226;2023-03-03T01:05:53;99554.84;;;6.33;96.83
22653;BME280;11493;43.344;26.226;2023-03-03T01:08:21;99540.13;;;6.24;97.45
22653;BME280;11493;43.344;26.226;2023-03-03T01:13:21;99539.03;;;6.25;98.11
22653;BME280;11493;43.344;26.226;2023-03-03T01:15:49;99539.25;;;6.34;97.45
22653;BME280;11493;43.344;26.226;2023-03-03T01:18:17;99538.41;;;6.38;97.31
22653;BME280;11493;43.344;26.226;2023-03-03T01:20:44;99537.88;;;6.36;97.50
22653;BME280;11493;43.344;26.226;2023-03-03T01:23:11;99538.97;;;6.40;97.37
22653;BME280;11493;43.344;26.226;2023-03-03T01:25:38;99524.28;;;6.26;97.77
22653;BME280;11493;43.344;26.226;2023-03-03T01:28:05;99534.06;;;6.37;97.77
22653;BME280;11493;43.344;26.226;2023-03-03T01:30:32;99530.75;;;6.40;97.67
22653;BME280;11493;43.344;26.226;2023-03-03T01:32:59;99518.25;;;6.29;98.13
22653;BME280;11493;43.344;26.226;2023-03-03T01:35:26;99532.97;;;6.38;97.76
22653;BME280;11493;43.344;26.226;2023-03-03T01:37:53;99514.66;;;6.34;98.21
22653;BME280;11493;43.344;26.226;2023-03-03T01:40:25;99519.00;;;6.40;97.95
22653;BME280;11493;43.344;26.226;2023-03-03T01:42:53;99517.66;;;6.37;98.33
22653;BME280;11493;43.344;26.226;2023-03-03T01:45:26;99528.06;;;6.35;98.14
22653;BME280;11493;43.344;26.226;2023-03-03T01:48:00;99508.94;;;6.35;98.47
22653;BME280;11493;43.344;26.226;2023-03-03T01:53:02;99504.81;;;6.38;98.28
22653;BME280;11493;43.344;26.226;2023-03-03T01:55:36;99509.47;;;6.37;98.18
22653;BME280;11493;43.344;26.226;2023-03-03T01:58:09;99507.81;;;6.36;98.44
22653;BME280;11493;43.344;26.226;2023-03-03T02:00:38;99512.75;;;6.34;98.59
22653;BME280;11493;43.344;26.226;2023-03-03T02:03:07;99491.44;;;6.36;98.66
22653;BME280;11493;43.344;26.226;2023-03-03T02:05:34;99495.81;;;6.32;98.86
22653;BME280;11493;43.344;26.226;2023-03-03T02:08:02;99490.94;;;6.29;99.23
22653;BME280;11493;43.344;26.226;2023-03-03T02:10:34;99484.91;;;6.32;99.22
22653;BME280;11493;43.344;26.226;2023-03-03T02:13:01;99486.78;;;6.37;98.84
22653;BME280;11493;43.344;26.226;2023-03-03T02:15:33;99495.75;;;6.42;98.99
22653;BME280;11493;43.344;26.226;2023-03-03T02:18:09;99457.09;;;6.20;98.99
22653;BME280;11493;43.344;26.226;2023-03-03T02:23:15;99493.94;;;6.28;99.61
22653;BME280;11493;43.344;26.226;2023-03-03T02:28:28;99493.72;;;6.19;99.80
22653;BME280;11493;43.344;26.226;2023-03-03T02:30:59;99489.03;;;6.24;99.89
22653;BME280;11493;43.344;26.226;2023-03-03T02:33:27;99492.00;;;6.33;99.20
22653;BME280;11493;43.344;26.226;2023-03-03T02:35:55;99472.97;;;6.18;99.36
22653;BME280;11493;43.344;26.226;2023-03-03T02:41:12;99489.88;;;6.20;100.00
22653;BME280;11493;43.344;26.226;2023-03-03T02:44:02;99492.56;;;6.30;99.31
22653;BME280;11493;43.344;26.226;2023-03-03T02:46:33;99473.78;;;6.18;99.79
22653;BME280;11493;43.344;26.226;2023-03-03T02:49:01;99473.47;;;6.25;99.80
22653;BME280;11493;43.344;26.226;2023-03-03T02:51:29;99470.13;;;6.33;99.56
22653;BME280;11493;43.344;26.226;2023-03-03T02:53:56;99478.91;;;6.30;99.32
22653;BME280;11493;43.344;26.226;2023-03-03T02:56:25;99475.63;;;6.28;99.91
22653;BME280;11493;43.344;26.226;2023-03-03T02:58:53;99460.09;;;6.23;99.81
22653;BME280;11493;43.344;26.226;2023-03-03T03:01:20;99483.00;;;6.28;99.91
22653;BME280;11493;43.344;26.226;2023-03-03T03:03:49;99484.38;;;6.25;100.00
22653;BME280;11493;43.344;26.226;2023-03-03T03:06:19;99473.53;;;6.15;100.00
22653;BME280;11493;43.344;26.226;2023-03-03T03:08:46;99483.63;;;6.14;100.00
22653;BME280;11493;43.344;26.226;2023-03-03T03:11:13;99488.25;;;6.19;100.00
22653;BME280;11493;43.344;26.226;2023-03-03T03:13:41;99485.53;;;6.19;100.00
22653;BME280;11493;43.344;26.226;2023-03-03T03:16:08;99483.06;;;6.17;100.00
22653;BME280;11493;43.344;26.226;2023-03-03T03:18:35;99479.25;;;6.18;100.00
22653;BME280;11493;43.344;26.226;2023-03-03T03:21:08;99478.19;;;6.09;100.00
22653;BME280;11493;43.344;26.226;2023-03-03T03:23:37;99465.59;;;6.13;100.00
22653;BME280;11493;43.344;26.226;2023-03-03T03:26:05;99465.84;;;6.17;100.00
22653;BME280;11493;43.344;26.226;2023-03-03T03:28:32;99472.06;;;6.28;100.00
22653;BME280;11493;43.344;26.226;2023-03-03T03:31:03;99465.03;;;6.16;100.00
22653;BME280;11493;43.344;26.226;2023-03-03T03:33:32;99469.34;;;6.28;100.00
22653;BME280;11493;43.344;26.226;2023-03-03T03:35:59;99464.22;;;6.16;100.00
22653;BME280;11493;43.344;26.226;2023-03-03T03:38:27;99468.59;;;6.17;100.00
22653;BME280;11493;43.344;26.226;2023-03-03T03:40:56;99469.94;;;6.19;100.00
22653;BME280;11493;43.344;26.226;2023-03-03T03:43:23;99465.06;;;6.11;100.00
22653;BME280;11493;43.344;26.226;2023-03-03T03:45:50;99474.59;;;6.19;100.00
22653;BME280;11493;43.344;26.226;2023-03-03T03:48:18;99469.13;;;6.19;100.00
22653;BME280;11493;43.344;26.226;2023-03-03T03:50:48;99465.31;;;6.15;100.00
22653;BME280;11493;43.344;26.226;2023-03-03T03:53:16;99472.13;;;6.17;100.00
22653;BME280;11493;43.344;26.226;2023-03-03T03:55:45;99467.50;;;6.18;100.00
22653;BME280;11493;43.344;26.226;2023-03-03T03:58:14;99456.56;;;6.18;100.00
22653;BME280;11493;43.344;26.226;2023-03-03T04:00:46;99461.19;;;6.22;100.00
22653;BME280;11493;43.344;26.226;2023-03-03T04:03:14;99447.56;;;6.17;100.00
22653;BME280;11493;43.344;26.226;2023-03-03T04:05:43;99469.13;;;6.19;100.00
22653;BME280;11493;43.344;26.226;2023-03-03T04:08:11;99471.56;;;6.20;100.00
22653;BME280;11493;43.344;26.226;2023-03-03T04:10:40;99460.41;;;6.17;100.00
22653;BME280;11493;43.344;26.226;2023-03-03T04:13:07;99467.47;;;6.23;100.00
22653;BME280;11493;43.344;26.226;2023-03-03T04:15:34;99457.97;;;6.10;100.00
22653;BME280;11493;43.344;26.226;2023-03-03T04:18:02;99468.59;;;6.17;100.00
22653;BME280;11493;43.344;26.226;2023-03-03T04:20:30;99462.03;;;6.18;100.00
22653;BME280;11493;43.344;26.226;2023-03-03T04:22:57;99446.50;;;6.08;100.00
22653;BME280;11493;43.344;26.226;2023-03-03T04:25:24;99466.94;;;6.21;100.00
22653;BME280;11493;43.344;26.226;2023-03-03T04:27:52;99463.09;;;6.22;100.00
22653;BME280;11493;43.344;26.226;2023-03-03T04:30:21;99457.09;;;6.20;100.00
22653;BME280;11493;43.344;26.226;2023-03-03T04:32:52;99463.41;;;6.15;100.00
22653;BME280;11493;43.344;26.226;2023-03-03T04:35:22;99454.66;;;6.18;100.00
22653;BME280;11493;43.344;26.226;2023-03-03T04:37:49;99450.28;;;6.17;100.00
22653;BME280;11493;43.344;26.226;2023-03-03T04:40:16;99452.47;;;6.15;100.00
22653;BME280;11493;43.344;26.226;2023-03-03T04:42:46;99450.84;;;6.14;100.00
22653;BME280;11493;43.344;26.226;2023-03-03T04:45:13;99437.25;;;6.04;100.00
22653;BME280;11493;43.344;26.226;2023-03-03T04:47:40;99412.50;;;5.90;100.00
22653;BME280;11493;43.344;26.226;2023-03-03T04:50:10;99451.69;;;6.10;100.00
22653;BME280;11493;43.344;26.226;2023-03-03T04:52:37;99447.34;;;6.04;100.00
22653;BME280;11493;43.344;26.226;2023-03-03T04:55:06;99449.50;;;6.12;100.00
22653;BME280;11493;43.344;26.226;2023-03-03T04:57:36;99446.25;;;6.05;100.00
22653;BME280;11493;43.344;26.226;2023-03-03T05:00:04;99438.09;;;6.00;100.00
22653;BME280;11493;43.344;26.226;2023-03-03T05:02:32;99453.59;;;6.09;100.00
22653;BME280;11493;43.344;26.226;2023-03-03T05:04:59;99452.47;;;6.15;100.00
22653;BME280;11493;43.344;26.226;2023-03-03T05:07:26;99440.22;;;6.08;100.00
22653;BME280;11493;43.344;26.226;2023-03-03T05:09:53;99455.47;;;6.19;100.00
22653;BME280;11493;43.344;26.226;2023-03-03T05:12:20;99423.38;;;5.96;100.00
22653;BME280;11493;43.344;26.226;2023-03-03T05:14:47;99454.97;;;6.12;100.00
22653;BME280;11493;43.344;26.226;2023-03-03T05:17:14;99472.69;;;6.14;100.00
22653;BME280;11493;43.344;26.226;2023-03-03T05:19:41;99466.16;;;6.10;100.00
22653;BME280;11493;43.344;26.226;2023-03-03T05:22:08;99467.81;;;6.06;100.00
22653;BME280;11493;43.344;26.226;2023-03-03T05:24:36;99472.72;;;6.09;100.00
22653;BME280;11493;43.344;26.226;2023-03-03T05:27:02;99462.69;;;6.00;100.00
22653;BME280;11493;43.344;26.226;2023-03-03T05:29:30;99455.31;;;5.95;100.00
22653;BME280;11493;43.344;26.226;2023-03-03T05:31:57;99475.72;;;6.13;100.00
22653;BME280;11493;43.344;26.226;2023-03-03T05:34:25;99482.28;;;6.12;100.00
22653;BME280;11493;43.344;26.226;2023-03-03T05:36:52;99473.81;;;6.08;100.00
22653;BME280;11493;43.344;26.226;2023-03-03T05:39:19;99484.97;;;6.17;100.00
22653;BME280;11493;43.344;26.226;2023-03-03T05:41:46;99482.25;;;6.17;100.00
22653;BME280;11493;43.344;26.226;2023-03-03T05:44:12;99478.41;;;6.18;100.00
22653;BME280;11493;43.344;26.226;2023-03-03T05:46:39;99489.59;;;6.21;100.00
22653;BME280;11493;43.344;26.226;2023-03-03T05:49:08;99483.81;;;6.28;100.00
22653;BME280;11493;43.344;26.226;2023-03-03T05:51:35;99488.19;;;6.29;100.00
22653;BME280;11493;43.344;26.226;2023-03-03T05:54:02;99496.38;;;6.29;100.00
22653;BME280;11493;43.344;26.226;2023-03-03T05:56:29;99463.41;;;6.15;100.00
22653;BME280;11493;43.344;26.226;2023-03-03T05:58:55;99465.81;;;6.22;100.00
22653;BME280;11493;43.344;26.226;2023-03-03T06:01:23;99482.97;;;6.33;100.00
22653;BME280;11493;43.344;26.226;2023-03-03T06:03:49;99483.81;;;6.28;100.00
22653;BME280;11493;43.344;26.226;2023-03-03T06:06:16;99474.25;;;6.31;100.00
22653;BME280;11493;43.344;26.226;2023-03-03T06:08:44;99467.44;;;6.28;100.00
22653;BME280;11493;43.344;26.226;2023-03-03T06:11:11;99477.78;;;6.31;100.00
22653;BME280;11493;43.344;26.226;2023-03-03T06:13:39;99477.22;;;6.34;100.00
22653;BME280;11493;43.344;26.226;2023-03-03T06:16:08;99477.47;;;6.38;100.00
22653;BME280;11493;43.344;26.226;2023-03-03T06:18:35;99483.72;;;6.43;100.00
22653;BME280;11493;43.344;26.226;2023-03-03T06:21:02;99475.28;;;6.40;100.00
22653;BME280;11493;43.344;26.226;2023-03-03T06:23:29;99470.06;;;6.43;100.00
22653;BME280;11493;43.344;26.226;2023-03-03T06:25:56;99480.66;;;6.55;100.00
22653;BME280;11493;43.344;26.226;2023-03-03T06:28:23;99483.06;;;6.62;100.00
22653;BME280;11493;43.344;26.226;2023-03-03T06:30:54;99480.91;;;6.58;100.00
22653;BME280;11493;43.344;26.226;2023-03-03T06:33:22;99480.59;;;6.60;100.00
22653;BME280;11493;43.344;26.226;2023-03-03T06:35:50;99474.31;;;6.59;100.00
22653;BME280;11493;43.344;26.226;2023-03-03T06:38:17;99466.97;;;6.55;100.00
22653;BME280;11493;43.344;26.226;2023-03-03T06:40:45;99490.94;;;6.68;100.00
22653;BME280;11493;43.344;26.226;2023-03-03T06:43:12;99478.13;;;6.64;100.00
22653;BME280;11493;43.344;26.226;2023-03-03T06:45:40;99485.75;;;6.67;100.00
22653;BME280;11493;43.344;26.226;2023-03-03T06:48:07;99498.50;;;6.76;100.00
22653;BME280;11493;43.344;26.226;2023-03-03T06:50:33;99488.09;;;6.78;100.00
22653;BME280;11493;43.344;26.226;2023-03-03T06:53:13;99494.63;;;6.82;100.00
22653;BME280;11493;43.344;26.226;2023-03-03T06:55:41;99485.56;;;6.87;100.00
22653;BME280;11493;43.344;26.226;2023-03-03T06:58:15;99483.13;;;6.85;100.00
22653;BME280;11493;43.344;26.226;2023-03-03T07:01:01;99479.44;;;7.00;100.00
22653;BME280;11493;43.344;26.226;2023-03-03T07:05:58;99471.50;;;6.99;100.00
22653;BME280;11493;43.344;26.226;2023-03-03T07:08:29;99474.09;;;7.14;100.00
22653;BME280;11493;43.344;26.226;2023-03-03T07:10:58;99482.50;;;7.22;100.00
22653;BME280;11493;43.344;26.226;2023-03-03T07:13:28;99475.06;;;7.28;99.55
22653;BME280;11493;43.344;26.226;2023-03-03T07:15:59;99478.91;;;7.27;99.47
22653;BME280;11493;43.344;26.226;2023-03-03T07:18:36;99472.63;;;7.27;99.81
22653;BME280;11493;43.344;26.226;2023-03-03T07:21:13;99487.88;;;7.33;100.00
22653;BME280;11493;43.344;26.226;2023-03-03T07:23:43;99457.28;;;7.25;99.01
22653;BME280;11493;43.344;26.226;2023-03-03T07:26:12;99481.25;;;7.39;99.36
22653;BME280;11493;43.344;26.226;2023-03-03T07:28:41;99483.56;;;7.50;99.13
22653;BME280;11493;43.344;26.226;2023-03-03T07:31:34;99480.53;;;7.52;98.53
22653;BME280;11493;43.344;26.226;2023-03-03T07:36:53;99468.91;;;7.41;97.09
22653;BME280;11493;43.344;26.226;2023-03-03T07:41:47;99477.38;;;7.64;96.47
22653;BME280;11493;43.344;26.226;2023-03-03T07:44:25;99479.13;;;7.78;95.66
22653;BME280;11493;43.344;26.226;2023-03-03T07:46:55;99471.66;;;7.84;95.41
22653;BME280;11493;43.344;26.226;2023-03-03T07:49:49;99473.75;;;7.92;95.24
22653;BME280;11493;43.344;26.226;2023-03-03T07:54:54;99478.88;;;7.99;93.94
22653;BME280;11493;43.344;26.226;2023-03-03T07:57:35;99472.88;;;7.97;93.31
22653;BME280;11493;43.344;26.226;2023-03-03T08:02:59;99473.09;;;8.19;91.92
22653;BME280;11493;43.344;26.226;2023-03-03T08:05:35;99465.50;;;8.16;91.83
22653;BME280;11493;43.344;26.226;2023-03-03T08:10:44;99467.22;;;8.49;90.97
22653;BME280;11493;43.344;26.226;2023-03-03T08:13:21;99461.66;;;8.54;90.24
22653;BME280;11493;43.344;26.226;2023-03-03T08:16:00;99449.63;;;8.32;89.18
22653;BME280;11493;43.344;26.226;2023-03-03T08:18:34;99463.44;;;8.45;89.59
22653;BME280;11493;43.344;26.226;2023-03-03T08:23:41;99446.78;;;8.74;88.34
22653;BME280;11493;43.344;26.226;2023-03-03T08:26:08;99448.97;;;8.91;87.51
22653;BME280;11493;43.344;26.226;2023-03-03T08:28:35;99437.59;;;8.98;88.09
22653;BME280;11493;43.344;26.226;2023-03-03T08:31:02;99440.66;;;9.10;87.62
22653;BME280;11493;43.344;26.226;2023-03-03T08:33:46;99436.72;;;9.16;87.89
22653;BME280;11493;43.344;26.226;2023-03-03T08:36:13;99435.28;;;9.18;87.07
22653;BME280;11493;43.344;26.226;2023-03-03T08:38:41;99423.19;;;9.19;86.80
22653;BME280;11493;43.344;26.226;2023-03-03T08:41:08;99440.69;;;9.37;86.40
22653;BME280;11493;43.344;26.226;2023-03-03T08:43:35;99434.31;;;9.42;86.35
22653;BME280;11493;43.344;26.226;2023-03-03T08:46:03;99439.09;;;9.50;85.85
22653;BME280;11493;43.344;26.226;2023-03-03T08:48:32;99439.38;;;9.48;85.42
22653;BME280;11493;43.344;26.226;2023-03-03T08:50:59;99439.00;;;9.55;85.08
22653;BME280;11493;43.344;26.226;2023-03-03T08:53:26;99436.34;;;9.50;84.28
22653;BME280;11493;43.344;26.226;2023-03-03T08:55:53;99424.44;;;9.54;84.35
22653;BME280;11493;43.344;26.226;2023-03-03T08:58:21;99436.13;;;9.60;84.21
22653;BME280;11493;43.344;26.226;2023-03-03T09:01:00;99430.03;;;9.49;83.91
22653;BME280;11493;43.344;26.226;2023-03-03T09:03:27;99433.28;;;9.65;83.55
22653;BME280;11493;43.344;26.226;2023-03-03T09:05:54;99430.59;;;9.74;83.18
22653;BME280;11493;43.344;26.226;2023-03-03T09:08:21;99425.75;;;9.57;83.16
22653;BME280;11493;43.344;26.226;2023-03-03T09:10:48;99425.75;;;9.57;82.48
22653;BME280;11493;43.344;26.226;2023-03-03T09:13:17;99419.66;;;9.60;81.88
22653;BME280;11493;43.344;26.226;2023-03-03T09:15:45;99425.72;;;9.71;81.18
22653;BME280;11493;43.344;26.226;2023-03-03T09:18:20;99430.13;;;9.58;83.20
22653;BME280;11493;43.344;26.226;2023-03-03T09:20:52;99421.06;;;9.58;82.08
22653;BME280;11493;43.344;26.226;2023-03-03T09:28:48;99415.63;;;9.80;82.58
22653;BME280;11493;43.344;26.226;2023-03-03T09:31:29;99417.56;;;9.79;81.98
22653;BME280;11493;43.344;26.226;2023-03-03T09:33:57;99412.28;;;9.69;80.67
22653;BME280;11493;43.344;26.226;2023-03-03T09:36:33;99418.00;;;9.73;81.13
22653;BME280;11493;43.344;26.226;2023-03-03T09:39:15;99411.56;;;9.77;81.15
22653;BME280;11493;43.344;26.226;2023-03-03T09:42:08;99424.69;;;9.80;81.42
22653;BME280;11493;43.344;26.226;2023-03-03T09:50:35;99410.00;;;9.63;80.84
22653;BME280;11493;43.344;26.226;2023-03-03T09:53:49;99409.19;;;9.62;81.55
22653;BME280;11493;43.344;26.226;2023-03-03T09:56:32;99401.31;;;9.69;81.38
22653;BME280;11493;43.344;26.226;2023-03-03T10:21:23;99380.47;;;10.40;79.66
22653;BME280;11493;43.344;26.226;2023-03-03T10:28:45;99363.47;;;10.38;80.00
22653;BME280;11493;43.344;26.226;2023-03-03T10:36:54;99350.81;;;10.15;81.03
22653;BME280;11493;43.344;26.226;2023-03-03T10:39:37;99342.47;;;10.20;81.11
22653;BME280;11493;43.344;26.226;2023-03-03T10:45:05;99346.66;;;10.40;80.93
22653;BME280;11493;43.344;26.226;2023-03-03T10:53:45;99331.13;;;10.66;80.98
22653;BME280;11493;43.344;26.226;2023-03-03T11:05:22;99324.38;;;11.12;77.60
22653;BME280;11493;43.344;26.226;2023-03-03T11:07:26;99323.25;;;11.22;76.79
22653;BME280;11493;43.344;26.226;2023-03-03T11:13:06;99311.78;;;11.37;76.40
22653;BME280;11493;43.344;26.226;2023-03-03T11:29:38;99299.44;;;11.26;77.37
22653;BME280;11493;43.344;26.226;2023-03-03T11:32:16;99301.88;;;11.27;77.38
22653;BME280;11493;43.344;26.226;2023-03-03T11:37:25;99285.72;;;10.86;77.80
22653;BME280;11493;43.344;26.226;2023-03-03T11:39:56;99284.00;;;10.68;78.22
22653;BME280;11493;43.344;26.226;2023-03-03T11:45:46;99281.34;;;10.85;79.98
22653;BME280;11493;43.344;26.226;2023-03-03T11:48:38;99282.66;;;10.88;80.17
22653;BME280;11493;43.344;26.226;2023-03-03T11:54:36;99276.19;;;10.92;78.60
22653;BME280;11493;43.344;26.226;2023-03-03T12:00:17;99273.59;;;10.87;79.91
22653;BME280;11493;43.344;26.226;2023-03-03T12:10:48;99267.22;;;10.78;80.29
22653;BME280;11493;43.344;26.226;2023-03-03T12:18:58;99250.47;;;10.97;78.67
22653;BME280;11493;43.344;26.226;2023-03-03T12:30:02;99247.75;;;11.05;77.48
22653;BME280;11493;43.344;26.226;2023-03-03T12:40:54;99259.50;;;10.89;77.31
22653;BME280;11493;43.344;26.226;2023-03-03T12:48:55;99256.84;;;10.75;79.32
22653;BME280;11493;43.344;26.226;2023-03-03T12:51:30;99258.66;;;10.79;79.43
22653;BME280;11493;43.344;26.226;2023-03-03T13:10:42;99261.84;;;10.33;82.19
22653;BME280;11493;43.344;26.226;2023-03-03T13:13:19;99255.59;;;10.19;82.22
22653;BME280;11493;43.344;26.226;2023-03-03T13:16:01;99250.72;;;10.16;82.67
22653;BME280;11493;43.344;26.226;2023-03-03T13:24:22;99251.41;;;9.99;85.02
22653;BME280;11493;43.344;26.226;2023-03-03T13:26:53;99258.19;;;9.79;86.13
22653;BME280;11493;43.344;26.226;2023-03-03T13:29:27;99252.13;;;9.69;87.27
22653;BME280;11493;43.344;26.226;2023-03-03T13:31:59;99264.81;;;9.56;87.31
22653;BME280;11493;43.344;26.226;2023-03-03T13:35:08;99255.44;;;9.57;87.66
22653;BME280;11493;43.344;26.226;2023-03-03T13:37:42;99256.06;;;9.54;88.01
22653;BME280;11493;43.344;26.226;2023-03-03T13:42:49;99243.06;;;9.46;89.29
22653;BME280;11493;43.344;26.226;2023-03-03T13:45:33;99254.56;;;9.48;90.38
22653;BME280;11493;43.344;26.226;2023-03-03T13:48:35;99251.69;;;9.53;89.96
22653;BME280;11493;43.344;26.226;2023-03-03T13:57:03;99241.31;;;9.14;93.11
22653;BME280;11493;43.344;26.226;2023-03-03T14:02:38;99242.81;;;9.20;92.89
22653;BME280;11493;43.344;26.226;2023-03-03T14:05:13;99241.00;;;9.15;92.65
22653;BME280;11493;43.344;26.226;2023-03-03T14:07:59;99230.13;;;9.10;91.72
22653;BME280;11493;43.344;26.226;2023-03-03T14:10:36;99237.75;;;9.13;91.32
22653;BME280;11493;43.344;26.226;2023-03-03T14:13:09;99242.44;;;8.99;91.98
22653;BME280;11493;43.344;26.226;2023-03-03T14:18:29;99239.28;;;8.92;92.66
22653;BME280;11493;43.344;26.226;2023-03-03T14:21:10;99241.94;;;8.97;91.97
22653;BME280;11493;43.344;26.226;2023-03-03T14:23:57;99242.53;;;9.08;92.06
22653;BME280;11493;43.344;26.226;2023-03-03T14:26:24;99237.66;;;9.05;92.08
22653;BME280;11493;43.344;26.226;2023-03-03T14:29:03;99245.59;;;9.06;91.80
22653;BME280;11493;43.344;26.226;2023-03-03T14:31:39;99229.41;;;9.05;91.48
22653;BME280;11493;43.344;26.226;2023-03-03T14:34:24;99245.06;;;9.18;91.54
22653;BME280;11493;43.344;26.226;2023-03-03T14:36:59;99232.66;;;9.07;91.65
22653;BME280;11493;43.344;26.226;2023-03-03T14:39:35;99241.31;;;9.00;91.66
22653;BME280;11493;43.344;26.226;2023-03-03T14:42:11;99217.06;;;8.80;92.54
22653;BME280;11493;43.344;26.226;2023-03-03T14:44:49;99244.16;;;8.95;92.50
22653;BME280;11493;43.344;26.226;2023-03-03T14:47:24;99244.69;;;8.97;92.07
22653;BME280;11493;43.344;26.226;2023-03-03T14:49:54;99238.06;;;8.98;92.40
22653;BME280;11493;43.344;26.226;2023-03-03T14:52:25;99244.16;;;8.95;92.79
22653;BME280;11493;43.344;26.226;2023-03-03T14:54:54;99241.44;;;8.95;93.08
22653;BME280;11493;43.344;26.226;2023-03-03T15:05:52;99240.84;;;8.71;93.95
22653;BME280;11493;43.344;26.226;2023-03-03T15:08:31;99244.91;;;8.73;94.18
22653;BME280;11493;43.344;26.226;2023-03-03T15:11:26;99234.03;;;8.54;95.39
22653;BME280;11493;43.344;26.226;2023-03-03T15:14:16;99249.69;;;8.68;95.43
22653;BME280;11493;43.344;26.226;2023-03-03T15:16:44;99251.50;;;8.72;95.64
22653;BME280;11493;43.344;26.226;2023-03-03T15:24:48;99253.34;;;8.63;97.53
22653;BME280;11493;43.344;26.226;2023-03-03T15:27:49;99248.13;;;8.48;99.04
22653;BME280;11493;43.344;26.226;2023-03-03T15:30:30;99239.28;;;8.37;99.62
22653;BME280;11493;43.344;26.226;2023-03-03T15:36:06;99251.09;;;8.19;100.00
22653;BME280;11493;43.344;26.226;2023-03-03T15:38:48;99273.03;;;8.19;100.00
22653;BME280;11493;43.344;26.226;2023-03-03T15:41:53;99255.84;;;8.00;100.00
22653;BME280;11493;43.344;26.226;2023-03-03T15:50:27;99276.81;;;7.90;100.00
22653;BME280;11493;43.344;26.226;2023-03-03T15:56:11;99280.00;;;7.79;100.00
22653;BME280;11493;43.344;26.226;2023-03-03T16:23:45;99303.69;;;7.51;100.00
22653;BME280;11493;43.344;26.226;2023-03-03T16:31:42;99307.69;;;7.40;100.00
22653;BME280;11493;43.344;26.226;2023-03-03T16:34:17;99311.53;;;7.39;100.00
22653;BME280;11493;43.344;26.226;2023-03-03T16:42:34;99333.97;;;7.41;100.00
22653;BME280;11493;43.344;26.226;2023-03-03T16:45:26;99331.81;;;7.38;100.00
22653;BME280;11493;43.344;26.226;2023-03-03T16:56:20;99345.91;;;7.26;100.00
22653;BME280;11493;43.344;26.226;2023-03-03T17:04:46;99349.06;;;7.14;100.00
22653;BME280;11493;43.344;26.226;2023-03-03T17:07:38;99342.78;;;7.14;100.00
22653;BME280;11493;43.344;26.226;2023-03-03T17:10:28;99342.31;;;7.07;100.00
22653;BME280;11493;43.344;26.226;2023-03-03T17:21:23;99343.22;;;6.97;100.00
22653;BME280;11493;43.344;26.226;2023-03-03T17:26:56;99343.00;;;6.93;100.00
22653;BME280;11493;43.344;26.226;2023-03-03T17:46:02;99353.69;;;6.90;100.00
22653;BME280;11493;43.344;26.226;2023-03-03T18:00:11;99359.16;;;6.90;100.00
22653;BME280;11493;43.344;26.226;2023-03-03T18:10:57;99365.47;;;6.90;100.00
22653;BME280;11493;43.344;26.226;2023-03-03T18:17:08;99368.09;;;7.01;100.00
22653;BME280;11493;43.344;26.226;2023-03-03T18:22:31;99352.53;;;6.96;100.00
22653;BME280;11493;43.344;26.226;2023-03-03T18:25:09;99331.75;;;6.71;100.00
22653;BME280;11493;43.344;26.226;2023-03-03T18:27:39;99363.25;;;6.92;100.00
22653;BME280;11493;43.344;26.226;2023-03-03T18:35:43;99362.66;;;6.96;100.00
22653;BME280;11493;43.344;26.226;2023-03-03T18:41:10;99371.16;;;6.94;100.00
22653;BME280;11493;43.344;26.226;2023-03-03T18:49:02;99380.94;;;7.00;100.00
22653;BME280;11493;43.344;26.226;2023-03-03T18:54:02;99369.53;;;6.93;100.00
22653;BME280;11493;43.344;26.226;2023-03-03T19:02:29;99381.88;;;6.90;100.00
22653;BME280;11493;43.344;26.226;2023-03-03T19:05:18;99370.16;;;6.85;100.00
22653;BME280;11493;43.344;26.226;2023-03-03T19:07:58;99363.94;;;6.79;100.00
22653;BME280;11493;43.344;26.226;2023-03-03T19:10:47;99384.94;;;6.84;100.00
22653;BME280;11493;43.344;26.226;2023-03-03T19:21:31;99395.94;;;6.79;100.00